Time;durP1;ratioP1;P1;durP2;ratioP2;P2;SDS_P1;SDS_P2;PMS_P1;PMS_P2;Temp;Humidity;BMP_temperature;BMP_pressure;BME280_temperature;BME280_humidity;BME280_pressure;Samples;Min_cycle;Max_cycle;Signal;HPM_P1;HPM_P2
2024/02/17 00:00:43;;;;;;;18.85;9.13;;;;;;;;;;4992923;28;20088;-84
2024/02/17 00:03:12;;;;;;;16.10;8.68;;;;;;;;;;4997362;28;20030;-80
2024/02/17 00:05:39;;;;;;;14.48;8.27;;;;;;;;;;4994195;28;20022;-80
2024/02/17 00:08:04;;;;;;;13.57;8.40;;;;;;;;;;4982140;28;20030;-80
2024/02/17 00:10:30;;;;;;;13.38;8.48;;;;;;;;;;4986590;28;20389;-80
2024/02/17 00:12:55;;;;;;;16.08;8.77;;;;;;;;;;4969099;28;20238;-80
2024/02/17 00:15:21;;;;;;;14.57;8.43;;;;;;;;;;4988414;28;20387;-80
2024/02/17 00:17:46;;;;;;;15.02;8.70;;;;;;;;;;4986425;28;20034;-80
2024/02/17 00:20:12;;;;;;;16.08;9.50;;;;;;;;;;4982312;28;20116;-80
2024/02/17 00:22:51;;;;;;;14.43;9.20;;;;;;;;;;4986266;28;20396;-80
2024/02/17 00:25:18;;;;;;;15.45;8.63;;;;;;;;;;4993394;28;20031;-80
2024/02/17 00:27:43;;;;;;;15.70;9.30;;;;;;;;;;4982607;28;20030;-80
2024/02/17 00:30:09;;;;;;;18.05;10.02;;;;;;;;;;4986891;28;20070;-80
2024/02/17 00:32:35;;;;;;;16.23;9.18;;;;;;;;;;4991893;28;20022;-80
2024/02/17 00:35:00;;;;;;;14.52;8.85;;;;;;;;;;4971331;28;20393;-80
2024/02/17 00:37:26;;;;;;;19.08;9.90;;;;;;;;;;4964407;28;20030;-80
2024/02/17 00:39:51;;;;;;;14.40;8.68;;;;;;;;;;4980937;28;20019;-80
2024/02/17 00:42:17;;;;;;;15.73;9.38;;;;;;;;;;4984242;28;20493;-80
2024/02/17 00:44:42;;;;;;;15.82;8.85;;;;;;;;;;4972216;28;20484;-80
2024/02/17 00:47:07;;;;;;;14.95;8.82;;;;;;;;;;4969502;28;20027;-80
2024/02/17 00:49:33;;;;;;;14.57;9.13;;;;;;;;;;4987113;28;20034;-80
2024/02/17 00:51:58;;;;;;;14.32;8.48;;;;;;;;;;4966574;28;20037;-80
2024/02/17 00:54:24;;;;;;;16.25;8.77;;;;;;;;;;4988791;28;20026;-80
2024/02/17 00:56:50;;;;;;;18.98;9.20;;;;;;;;;;4973641;28;20046;-80
2024/02/17 00:59:16;;;;;;;15.05;9.30;;;;;;;;;;4976708;28;20400;-80
2024/02/17 01:01:43;;;;;;;15.90;8.93;;;;;;;;;;4985725;28;20033;-80
2024/02/17 01:04:08;;;;;;;17.48;8.60;;;;;;;;;;4991582;28;20044;-80
2024/02/17 01:06:34;;;;;;;17.40;9.10;;;;;;;;;;4960483;28;20030;-80
2024/02/17 01:08:59;;;;;;;17.27;8.55;;;;;;;;;;4981443;28;20029;-80
2024/02/17 01:11:24;;;;;;;15.90;9.32;;;;;;;;;;4978423;28;20022;-83
2024/02/17 01:13:50;;;;;;;13.80;8.27;;;;;;;;;;4981898;28;20030;-83
2024/02/17 01:16:15;;;;;;;16.95;8.68;;;;;;;;;;4961593;28;20030;-84
2024/02/17 01:18:41;;;;;;;14.65;8.65;;;;;;;;;;4961947;28;20022;-83
2024/02/17 01:21:06;;;;;;;16.23;8.75;;;;;;;;;;4978389;28;20514;-83
2024/02/17 01:23:32;;;;;;;17.27;8.82;;;;;;;;;;4979008;28;20125;-80
2024/02/17 01:25:57;;;;;;;13.30;8.27;;;;;;;;;;4960017;28;20026;-80
2024/02/17 01:28:23;;;;;;;18.08;9.10;;;;;;;;;;4963801;28;20813;-80
2024/02/17 01:30:48;;;;;;;16.23;9.15;;;;;;;;;;4980714;28;21029;-80
2024/02/17 01:33:15;;;;;;;15.82;9.60;;;;;;;;;;4979415;28;20057;-80
2024/02/17 01:35:41;;;;;;;17.25;9.07;;;;;;;;;;4978892;28;20417;-80
2024/02/17 01:38:08;;;;;;;14.68;8.90;;;;;;;;;;4962493;28;20038;-80
2024/02/17 01:40:34;;;;;;;14.40;8.25;;;;;;;;;;4964412;28;20113;-80
2024/02/17 01:43:00;;;;;;;11.90;8.18;;;;;;;;;;4961315;28;20583;-80
2024/02/17 01:45:25;;;;;;;13.57;9.05;;;;;;;;;;4962224;28;20029;-80
2024/02/17 01:47:54;;;;;;;18.27;9.48;;;;;;;;;;4976257;28;20034;-80
2024/02/17 01:50:19;;;;;;;15.63;9.30;;;;;;;;;;4959429;28;20027;-80
2024/02/17 01:52:45;;;;;;;15.35;9.00;;;;;;;;;;4979421;28;20046;-80
2024/02/17 01:55:12;;;;;;;17.38;9.63;;;;;;;;;;4979268;28;20037;-81
2024/02/17 01:57:39;;;;;;;15.32;9.35;;;;;;;;;;4964825;28;20451;-80
2024/02/17 02:00:06;;;;;;;19.38;10.18;;;;;;;;;;4974016;28;20061;-81
2024/02/17 02:02:32;;;;;;;16.27;8.98;;;;;;;;;;4979072;28;20477;-84
2024/02/17 02:04:58;;;;;;;14.50;9.45;;;;;;;;;;4977230;28;20034;-84
2024/02/17 02:07:23;;;;;;;18.63;9.73;;;;;;;;;;4965911;28;20034;-84
2024/02/17 02:09:48;;;;;;;17.20;9.48;;;;;;;;;;4977095;28;20444;-84
2024/02/17 02:12:14;;;;;;;17.42;9.57;;;;;;;;;;4957805;28;20069;-84
2024/02/17 02:14:39;;;;;;;16.70;9.82;;;;;;;;;;4982147;28;20032;-84
2024/02/17 02:17:05;;;;;;;16.25;9.60;;;;;;;;;;4995136;28;20022;-84
2024/02/17 02:19:30;;;;;;;14.00;9.52;;;;;;;;;;4978007;28;20121;-83
2024/02/17 02:21:56;;;;;;;15.50;9.55;;;;;;;;;;4976765;28;20056;-84
2024/02/17 02:24:22;;;;;;;18.88;9.32;;;;;;;;;;4965309;28;20068;-84
2024/02/17 02:26:47;;;;;;;13.63;8.95;;;;;;;;;;4988701;28;20113;-84
2024/02/17 02:29:13;;;;;;;15.88;9.57;;;;;;;;;;4978220;28;20479;-83
2024/02/17 02:31:40;;;;;;;17.52;9.85;;;;;;;;;;4966114;28;20021;-83
2024/02/17 02:34:06;;;;;;;18.92;9.55;;;;;;;;;;4975617;28;20030;-83
2024/02/17 02:36:31;;;;;;;15.15;9.20;;;;;;;;;;4963927;28;20117;-84
2024/02/17 02:38:56;;;;;;;18.77;9.98;;;;;;;;;;4978919;28;20030;-83
2024/02/17 02:41:22;;;;;;;22.50;9.25;;;;;;;;;;4967155;28;20030;-84
2024/02/17 02:43:48;;;;;;;21.42;10.23;;;;;;;;;;4983049;28;20393;-83
2024/02/17 02:46:13;;;;;;;16.95;9.05;;;;;;;;;;4968351;28;20038;-83
2024/02/17 02:48:39;;;;;;;16.90;9.50;;;;;;;;;;4966687;28;20035;-83
2024/02/17 02:51:04;;;;;;;19.88;9.27;;;;;;;;;;4966733;28;20030;-83
2024/02/17 02:53:30;;;;;;;15.55;8.85;;;;;;;;;;4966766;28;20041;-83
2024/02/17 02:55:56;;;;;;;17.00;9.63;;;;;;;;;;4981967;28;20024;-84
2024/02/17 02:58:22;;;;;;;19.13;9.90;;;;;;;;;;4968462;28;20424;-84
2024/02/17 03:00:48;;;;;;;14.75;8.82;;;;;;;;;;4963051;28;20388;-84
2024/02/17 03:03:13;;;;;;;14.50;9.27;;;;;;;;;;4979372;28;20037;-84
2024/02/17 03:05:39;;;;;;;16.50;8.82;;;;;;;;;;4981825;28;20030;-83
2024/02/17 03:08:05;;;;;;;19.05;9.55;;;;;;;;;;4980548;28;20054;-83
2024/02/17 03:10:30;;;;;;;14.75;8.73;;;;;;;;;;4966749;28;20026;-84
2024/02/17 03:12:56;;;;;;;17.38;9.43;;;;;;;;;;4983286;28;20027;-80
2024/02/17 03:15:21;;;;;;;16.67;9.10;;;;;;;;;;4985018;28;20053;-80
2024/02/17 03:17:47;;;;;;;19.25;10.07;;;;;;;;;;4991001;28;20476;-80
2024/02/17 03:20:12;;;;;;;14.35;9.90;;;;;;;;;;4966994;28;20026;-80
2024/02/17 03:22:38;;;;;;;17.27;9.65;;;;;;;;;;4964673;28;20026;-80
2024/02/17 03:25:04;;;;;;;16.08;9.73;;;;;;;;;;4981221;28;20050;-80
2024/02/17 03:27:29;;;;;;;14.65;8.90;;;;;;;;;;4981662;28;20984;-80
2024/02/17 03:29:55;;;;;;;17.08;9.32;;;;;;;;;;4978752;28;20796;-81
2024/02/17 03:32:20;;;;;;;16.85;9.23;;;;;;;;;;4981531;28;20104;-80
2024/02/17 03:34:45;;;;;;;16.90;9.20;;;;;;;;;;4964053;28;20077;-80
2024/02/17 03:37:11;;;;;;;17.42;9.57;;;;;;;;;;4982012;28;20027;-80
2024/02/17 03:39:36;;;;;;;15.13;9.00;;;;;;;;;;4983364;28;20073;-80
2024/02/17 03:42:02;;;;;;;14.27;9.18;;;;;;;;;;4983296;28;20566;-80
2024/02/17 03:44:29;;;;;;;19.67;8.85;;;;;;;;;;4981650;28;20673;-80
2024/02/17 03:46:54;;;;;;;14.52;8.02;;;;;;;;;;4967003;28;20392;-80
2024/02/17 03:49:20;;;;;;;13.88;8.35;;;;;;;;;;4983774;28;20037;-80
2024/02/17 03:51:48;;;;;;;14.27;8.90;;;;;;;;;;4983022;28;20068;-80
2024/02/17 03:54:14;;;;;;;17.70;8.98;;;;;;;;;;4964229;28;20022;-80
2024/02/17 03:56:40;;;;;;;14.77;9.10;;;;;;;;;;4982301;28;20028;-80
2024/02/17 03:59:05;;;;;;;19.05;9.35;;;;;;;;;;4972380;28;20055;-80
2024/02/17 04:01:37;;;;;;;14.13;9.02;;;;;;;;;;4981763;28;20092;-80
2024/02/17 04:04:04;;;;;;;17.13;9.47;;;;;;;;;;4981640;28;20040;-80
2024/02/17 04:06:32;;;;;;;15.38;8.45;;;;;;;;;;4962277;28;20184;-80
2024/02/17 04:08:59;;;;;;;16.83;9.05;;;;;;;;;;4979744;28;20033;-80
2024/02/17 04:11:27;;;;;;;18.00;8.98;;;;;;;;;;4979599;28;20030;-80
2024/02/17 04:13:53;;;;;;;15.80;9.35;;;;;;;;;;4980443;28;20037;-80
2024/02/17 04:16:19;;;;;;;16.42;8.75;;;;;;;;;;4977468;28;20069;-80
2024/02/17 04:18:45;;;;;;;14.63;9.10;;;;;;;;;;4966815;28;20034;-80
2024/02/17 04:21:11;;;;;;;14.38;8.75;;;;;;;;;;4970144;28;20423;-84
2024/02/17 04:23:37;;;;;;;15.35;9.02;;;;;;;;;;4978498;28;20080;-80
2024/02/17 04:26:05;;;;;;;17.17;9.00;;;;;;;;;;4978345;28;20022;-80
2024/02/17 04:28:31;;;;;;;16.45;8.35;;;;;;;;;;4980712;28;20050;-80
2024/02/17 04:30:57;;;;;;;15.27;8.50;;;;;;;;;;4965403;28;20039;-80
2024/02/17 04:33:22;;;;;;;15.35;9.23;;;;;;;;;;4982326;28;20484;-80
2024/02/17 04:35:47;;;;;;;16.65;8.88;;;;;;;;;;4968658;28;20121;-80
2024/02/17 04:38:13;;;;;;;16.95;8.90;;;;;;;;;;4964324;28;20857;-80
2024/02/17 04:40:39;;;;;;;15.73;8.93;;;;;;;;;;4980027;28;20069;-80
2024/02/17 04:43:04;;;;;;;15.93;9.32;;;;;;;;;;4981113;28;20054;-80
2024/02/17 04:45:30;;;;;;;14.20;8.40;;;;;;;;;;4963698;28;20036;-80
2024/02/17 04:47:55;;;;;;;13.18;8.70;;;;;;;;;;4968396;28;21567;-80
2024/02/17 04:50:21;;;;;;;16.27;9.02;;;;;;;;;;4981602;28;20442;-80
2024/02/17 04:52:46;;;;;;;15.55;8.88;;;;;;;;;;4976673;28;20061;-81
2024/02/17 04:55:12;;;;;;;14.43;8.88;;;;;;;;;;4966869;28;20542;-80
2024/02/17 04:57:37;;;;;;;15.30;8.93;;;;;;;;;;4981684;28;20053;-80
2024/02/17 05:00:05;;;;;;;18.55;9.05;;;;;;;;;;4984082;28;20081;-80
2024/02/17 05:02:31;;;;;;;16.95;8.95;;;;;;;;;;4971671;28;20030;-80
2024/02/17 05:04:57;;;;;;;14.70;9.18;;;;;;;;;;4981824;28;20165;-80
2024/02/17 05:07:22;;;;;;;16.95;9.27;;;;;;;;;;4978940;28;20045;-80
2024/02/17 05:09:49;;;;;;;14.68;8.77;;;;;;;;;;4979932;28;20030;-80
2024/02/17 05:12:15;;;;;;;14.48;8.65;;;;;;;;;;4981953;28;20034;-80
2024/02/17 05:14:40;;;;;;;15.38;9.82;;;;;;;;;;4963715;28;20034;-80
2024/02/17 05:17:06;;;;;;;17.42;9.40;;;;;;;;;;4966189;28;20390;-80
2024/02/17 05:19:32;;;;;;;16.50;9.40;;;;;;;;;;4977601;28;20704;-80
2024/02/17 05:21:58;;;;;;;17.48;9.18;;;;;;;;;;4977360;28;20065;-84
2024/02/17 05:24:24;;;;;;;14.63;9.20;;;;;;;;;;4975606;28;20080;-83
2024/02/17 05:26:49;;;;;;;16.58;8.90;;;;;;;;;;4976106;28;20034;-84
2024/02/17 05:29:15;;;;;;;18.08;9.48;;;;;;;;;;4976853;28;20031;-83
2024/02/17 05:31:40;;;;;;;18.25;9.00;;;;;;;;;;4960735;28;20499;-84
2024/02/17 05:34:06;;;;;;;14.27;8.45;;;;;;;;;;4963301;28;20436;-84
2024/02/17 05:36:31;;;;;;;14.82;8.73;;;;;;;;;;4964549;28;20484;-84
2024/02/17 05:38:57;;;;;;;14.68;8.40;;;;;;;;;;4981013;28;20033;-84
2024/02/17 05:41:22;;;;;;;13.38;8.68;;;;;;;;;;4980812;28;20026;-84
2024/02/17 05:43:48;;;;;;;15.55;8.98;;;;;;;;;;4978984;28;20432;-84
2024/02/17 05:46:13;;;;;;;16.48;8.27;;;;;;;;;;4980502;28;20361;-84
2024/02/17 05:48:38;;;;;;;13.63;7.95;;;;;;;;;;4975723;28;20129;-83
2024/02/17 05:51:04;;;;;;;19.02;8.55;;;;;;;;;;4981651;28;20130;-83
2024/02/17 05:53:29;;;;;;;16.52;8.20;;;;;;;;;;4964351;28;20077;-83
2024/02/17 05:55:55;;;;;;;13.65;8.15;;;;;;;;;;4963364;28;20022;-83
2024/02/17 05:58:21;;;;;;;13.18;8.05;;;;;;;;;;4965484;28;20031;-83
2024/02/17 06:00:47;;;;;;;13.32;8.00;;;;;;;;;;4978117;28;20026;-83
2024/02/17 06:03:13;;;;;;;15.88;8.40;;;;;;;;;;4981164;28;20037;-83
2024/02/17 06:05:38;;;;;;;15.60;8.07;;;;;;;;;;4979340;28;20026;-83
2024/02/17 06:08:04;;;;;;;12.35;7.68;;;;;;;;;;4978369;28;20026;-83
2024/02/17 06:10:30;;;;;;;14.77;7.65;;;;;;;;;;4962662;28;20097;-83
2024/02/17 06:12:55;;;;;;;14.63;8.35;;;;;;;;;;4977678;28;20460;-83
2024/02/17 06:15:20;;;;;;;18.17;8.65;;;;;;;;;;4977254;28;20587;-83
2024/02/17 06:21:09;;;;;;;17.58;8.75;;;;;;;;;;4981964;28;20026;-83
2024/02/17 06:23:21;;;;;;;16.88;8.55;;;;;;;;;;4980425;28;20092;-83
2024/02/17 06:25:47;;;;;;;18.27;8.60;;;;;;;;;;4972818;28;20475;-83
2024/02/17 06:28:12;;;;;;;14.23;8.00;;;;;;;;;;4975244;28;20492;-83
2024/02/17 06:30:37;;;;;;;14.93;7.75;;;;;;;;;;4975713;28;20688;-83
2024/02/17 06:33:03;;;;;;;14.35;7.70;;;;;;;;;;4979134;28;20034;-83
2024/02/17 06:35:28;;;;;;;16.23;7.75;;;;;;;;;;4979687;28;20027;-83
2024/02/17 06:37:54;;;;;;;13.07;7.60;;;;;;;;;;4967291;28;20030;-83
2024/02/17 06:40:19;;;;;;;14.10;7.55;;;;;;;;;;4961640;28;20381;-83
2024/02/17 06:42:45;;;;;;;12.55;6.90;;;;;;;;;;4979722;28;20035;-83
2024/02/17 06:45:15;;;;;;;12.57;7.28;;;;;;;;;;4980714;28;20465;-83
2024/02/17 06:47:41;;;;;;;15.45;7.80;;;;;;;;;;4965237;28;20027;-83
2024/02/17 06:50:06;;;;;;;15.27;7.30;;;;;;;;;;4977753;28;20041;-83
2024/02/17 06:52:32;;;;;;;15.70;6.93;;;;;;;;;;4964807;28;20045;-83
2024/02/17 06:54:57;;;;;;;16.05;7.85;;;;;;;;;;4977728;28;20497;-83
2024/02/17 06:57:23;;;;;;;11.07;7.35;;;;;;;;;;4964240;28;20089;-83
2024/02/17 06:59:48;;;;;;;13.75;7.65;;;;;;;;;;4980935;28;20023;-83
2024/02/17 07:02:15;;;;;;;13.38;7.70;;;;;;;;;;4975575;28;20073;-83
2024/02/17 07:04:40;;;;;;;15.65;7.22;;;;;;;;;;4977737;28;20074;-83
2024/02/17 07:07:06;;;;;;;13.32;7.03;;;;;;;;;;4959908;28;20066;-83
2024/02/17 07:09:31;;;;;;;12.45;6.65;;;;;;;;;;4978384;28;20454;-83
2024/02/17 07:11:57;;;;;;;13.43;6.35;;;;;;;;;;4978687;28;20030;-83
2024/02/17 07:14:23;;;;;;;14.00;6.70;;;;;;;;;;4975769;28;21747;-83
2024/02/17 07:16:49;;;;;;;9.50;6.25;;;;;;;;;;4965012;28;20030;-83
2024/02/17 07:19:14;;;;;;;9.43;6.00;;;;;;;;;;4980061;28;20507;-83
2024/02/17 07:21:39;;;;;;;11.38;6.25;;;;;;;;;;4960191;28;20146;-83
2024/02/17 07:24:05;;;;;;;10.10;6.35;;;;;;;;;;4975529;28;20018;-84
2024/02/17 07:26:30;;;;;;;11.93;6.32;;;;;;;;;;4980837;28;20097;-83
2024/02/17 07:28:58;;;;;;;14.55;6.35;;;;;;;;;;4976778;28;20066;-83
2024/02/17 07:31:23;;;;;;;13.45;6.40;;;;;;;;;;4967774;28;20128;-83
2024/02/17 07:33:51;;;;;;;11.60;6.10;;;;;;;;;;4974847;28;20485;-83
2024/02/17 07:36:16;;;;;;;11.70;6.15;;;;;;;;;;4958205;28;20019;-83
2024/02/17 07:38:42;;;;;;;11.85;6.47;;;;;;;;;;4968423;28;20377;-84
2024/02/17 07:41:07;;;;;;;13.70;7.10;;;;;;;;;;4979487;28;20031;-83
2024/02/17 07:43:33;;;;;;;13.95;6.57;;;;;;;;;;4972628;28;20042;-80
2024/02/17 07:45:58;;;;;;;12.65;6.25;;;;;;;;;;4970894;28;20033;-80
2024/02/17 07:48:24;;;;;;;13.68;6.72;;;;;;;;;;4966690;28;20026;-80
2024/02/17 07:50:49;;;;;;;11.07;6.32;;;;;;;;;;4967457;28;20030;-80
2024/02/17 07:53:15;;;;;;;13.73;7.38;;;;;;;;;;4982131;28;20037;-80
2024/02/17 07:55:40;;;;;;;13.05;7.15;;;;;;;;;;4982342;28;20026;-80
2024/02/17 07:58:08;;;;;;;11.68;6.40;;;;;;;;;;4985588;28;20495;-80
2024/02/17 08:00:34;;;;;;;11.38;6.88;;;;;;;;;;4982200;28;20035;-80
2024/02/17 08:02:59;;;;;;;14.23;7.18;;;;;;;;;;4982881;28;20041;-80
2024/02/17 08:05:24;;;;;;;11.75;6.43;;;;;;;;;;4980065;28;20062;-80
2024/02/17 08:07:50;;;;;;;9.95;6.47;;;;;;;;;;4993477;28;20079;-80
2024/02/17 08:10:15;;;;;;;11.88;6.30;;;;;;;;;;4980803;28;20027;-80
2024/02/17 08:12:42;;;;;;;14.07;6.85;;;;;;;;;;4987275;28;20030;-80
2024/02/17 08:15:07;;;;;;;10.23;6.03;;;;;;;;;;4989178;28;20034;-80
2024/02/17 08:17:34;;;;;;;14.27;6.05;;;;;;;;;;4980095;28;20073;-80
2024/02/17 08:19:59;;;;;;;11.15;6.15;;;;;;;;;;4989681;28;20018;-79
2024/02/17 08:22:25;;;;;;;11.43;5.75;;;;;;;;;;4976205;28;20539;-79
2024/02/17 08:24:50;;;;;;;11.40;6.45;;;;;;;;;;4983221;28;20427;-80
2024/02/17 08:27:16;;;;;;;15.40;6.80;;;;;;;;;;4989632;28;20065;-80
2024/02/17 08:29:41;;;;;;;14.00;6.22;;;;;;;;;;4986520;28;20058;-80
2024/02/17 08:32:07;;;;;;;11.10;6.15;;;;;;;;;;4980037;28;20062;-80
2024/02/17 08:34:32;;;;;;;10.32;5.93;;;;;;;;;;4986691;28;20038;-80
2024/02/17 08:36:58;;;;;;;11.82;5.60;;;;;;;;;;4977056;28;20041;-80
2024/02/17 08:39:23;;;;;;;14.45;6.20;;;;;;;;;;4967385;28;20019;-80
2024/02/17 08:41:49;;;;;;;11.68;5.50;;;;;;;;;;4967042;28;20034;-80
2024/02/17 08:44:14;;;;;;;12.00;5.97;;;;;;;;;;4976721;28;20491;-80
2024/02/17 08:46:40;;;;;;;11.32;5.72;;;;;;;;;;4979498;28;20039;-81
2024/02/17 08:49:05;;;;;;;10.00;5.80;;;;;;;;;;4964758;28;20475;-80
2024/02/17 08:51:31;;;;;;;12.70;6.32;;;;;;;;;;4991427;28;20030;-80
2024/02/17 08:53:57;;;;;;;13.15;6.10;;;;;;;;;;4986409;28;20076;-80
2024/02/17 08:56:24;;;;;;;13.20;6.32;;;;;;;;;;4988328;28;20058;-80
2024/02/17 08:58:50;;;;;;;17.27;6.30;;;;;;;;;;4984579;28;20054;-80
2024/02/17 09:01:15;;;;;;;10.98;6.00;;;;;;;;;;4979948;28;20027;-80
2024/02/17 09:03:44;;;;;;;13.20;5.78;;;;;;;;;;4965674;28;20038;-80
2024/02/17 09:06:10;;;;;;;14.15;6.35;;;;;;;;;;4969578;28;20377;-80
2024/02/17 09:08:35;;;;;;;12.90;6.30;;;;;;;;;;4972433;28;20034;-81
2024/02/17 09:11:01;;;;;;;11.25;6.10;;;;;;;;;;4971210;28;20117;-80
2024/02/17 09:13:26;;;;;;;12.27;5.65;;;;;;;;;;4969623;28;20057;-80
2024/02/17 09:15:51;;;;;;;13.10;6.63;;;;;;;;;;4997645;28;20482;-80
2024/02/17 09:18:17;;;;;;;11.95;5.85;;;;;;;;;;4970812;28;20031;-80
2024/02/17 09:20:42;;;;;;;12.65;6.13;;;;;;;;;;4980122;28;20030;-80
2024/02/17 09:23:07;;;;;;;12.10;5.72;;;;;;;;;;4986787;28;20400;-80
2024/02/17 09:25:33;;;;;;;12.95;6.45;;;;;;;;;;4985442;28;20072;-80
2024/02/17 09:27:58;;;;;;;18.65;6.95;;;;;;;;;;4984980;28;20165;-80
2024/02/17 09:30:24;;;;;;;10.65;6.32;;;;;;;;;;4973045;28;20113;-80
2024/02/17 09:32:50;;;;;;;16.52;7.22;;;;;;;;;;4965470;28;20227;-80
2024/02/17 09:35:18;;;;;;;12.55;6.70;;;;;;;;;;4964030;28;20085;-80
2024/02/17 09:37:44;;;;;;;15.60;6.75;;;;;;;;;;4976806;28;20027;-81
2024/02/17 09:40:11;;;;;;;15.57;6.90;;;;;;;;;;4975581;28;20027;-81
2024/02/17 09:42:37;;;;;;;12.85;6.55;;;;;;;;;;4965347;28;20034;-81
2024/02/17 09:45:03;;;;;;;13.75;6.97;;;;;;;;;;4971376;28;20025;-80
2024/02/17 09:47:33;;;;;;;14.98;7.22;;;;;;;;;;4979886;28;20453;-81
2024/02/17 09:49:59;;;;;;;14.85;6.65;;;;;;;;;;4956524;28;20118;-79
2024/02/17 09:52:27;;;;;;;13.10;6.75;;;;;;;;;;4991271;28;20101;-81
2024/02/17 09:54:54;;;;;;;13.55;6.80;;;;;;;;;;4959791;28;20081;-81
2024/02/17 09:57:19;;;;;;;13.98;6.82;;;;;;;;;;4962031;28;20034;-80
2024/02/17 09:59:45;;;;;;;13.73;6.63;;;;;;;;;;4979618;28;20499;-80
2024/02/17 10:02:11;;;;;;;12.73;6.70;;;;;;;;;;4959465;28;20119;-81
2024/02/17 10:04:59;;;;;;;14.00;7.15;;;;;;;;;;4974318;28;20030;-81
2024/02/17 10:07:25;;;;;;;12.32;7.05;;;;;;;;;;4965294;28;20065;-80
2024/02/17 10:09:50;;;;;;;15.95;7.45;;;;;;;;;;4972370;28;20023;-80
2024/02/17 10:12:17;;;;;;;14.13;7.63;;;;;;;;;;4959847;28;20094;-80
2024/02/17 10:14:43;;;;;;;19.08;7.63;;;;;;;;;;4975594;28;20071;-81
2024/02/17 10:17:11;;;;;;;13.55;7.82;;;;;;;;;;4973593;28;20061;-79
2024/02/17 10:19:39;;;;;;;15.40;8.00;;;;;;;;;;4956768;28;20811;-79
2024/02/17 10:22:05;;;;;;;13.63;7.47;;;;;;;;;;4973840;28;20029;-80
2024/02/17 10:24:30;;;;;;;12.27;6.88;;;;;;;;;;4965856;28;20035;-80
2024/02/17 10:26:58;;;;;;;13.88;7.93;;;;;;;;;;4978222;28;20587;-80
2024/02/17 10:29:26;;;;;;;13.98;7.32;;;;;;;;;;4972963;28;20026;-79
2024/02/17 10:31:51;;;;;;;16.52;8.02;;;;;;;;;;4972353;28;20030;-79
2024/02/17 10:34:17;;;;;;;15.35;7.65;;;;;;;;;;4975912;28;20481;-79
2024/02/17 10:36:43;;;;;;;13.52;7.97;;;;;;;;;;4956606;28;20511;-79
2024/02/17 10:39:11;;;;;;;15.27;8.18;;;;;;;;;;4955355;28;20030;-80
2024/02/17 10:41:37;;;;;;;14.35;8.13;;;;;;;;;;4957022;28;20481;-80
2024/02/17 10:44:03;;;;;;;16.38;8.90;;;;;;;;;;4980958;28;20112;-79
2024/02/17 10:46:31;;;;;;;15.07;8.38;;;;;;;;;;4955596;28;20053;-80
2024/02/17 10:49:21;;;;;;;15.00;8.05;;;;;;;;;;4976354;28;20037;-79
2024/02/17 10:52:03;;;;;;;14.00;8.30;;;;;;;;;;4971668;28;20117;-79
2024/02/17 10:54:54;;;;;;;16.33;9.73;;;;;;;;;;4975754;28;20053;-80
2024/02/17 10:57:21;;;;;;;15.18;8.48;;;;;;;;;;4971908;28;20114;-79
2024/02/17 10:59:53;;;;;;;17.48;9.52;;;;;;;;;;4958691;28;20026;-80
2024/02/17 11:02:24;;;;;;;18.90;9.05;;;;;;;;;;4978858;28;20038;-80
2024/02/17 11:04:50;;;;;;;18.40;8.75;;;;;;;;;;4979214;28;20408;-80
2024/02/17 11:07:16;;;;;;;15.40;8.25;;;;;;;;;;4973766;28;20057;-79
2024/02/17 11:09:45;;;;;;;17.67;9.35;;;;;;;;;;4979057;28;20547;-80
2024/02/17 11:12:32;;;;;;;15.25;8.52;;;;;;;;;;4965098;28;20027;-80
2024/02/17 11:15:11;;;;;;;15.85;8.65;;;;;;;;;;4962593;28;20137;-79
2024/02/17 11:17:53;;;;;;;15.98;7.95;;;;;;;;;;4965384;28;20435;-80
2024/02/17 11:20:19;;;;;;;14.65;8.38;;;;;;;;;;4960598;28;20113;-80
2024/02/17 11:22:50;;;;;;;16.02;8.38;;;;;;;;;;4978142;28;20030;-80
2024/02/17 11:25:35;;;;;;;15.20;8.60;;;;;;;;;;4978081;28;20113;-79
2024/02/17 11:28:04;;;;;;;16.90;9.10;;;;;;;;;;4977284;28;20035;-79
2024/02/17 11:30:47;;;;;;;23.75;10.50;;;;;;;;;;4964938;28;20124;-80
2024/02/17 11:33:21;;;;;;;14.02;9.52;;;;;;;;;;4970013;28;20113;-80
2024/02/17 11:35:48;;;;;;;16.80;9.20;;;;;;;;;;4973043;28;20045;-80
2024/02/17 11:38:15;;;;;;;17.00;8.90;;;;;;;;;;4961800;28;21601;-80
2024/02/17 11:40:40;;;;;;;18.13;9.95;;;;;;;;;;4964265;28;20045;-80
2024/02/17 11:43:06;;;;;;;14.20;9.52;;;;;;;;;;4977639;28;20038;-80
2024/02/17 11:45:31;;;;;;;15.25;8.40;;;;;;;;;;4961333;28;20093;-79
2024/02/17 11:47:57;;;;;;;15.38;8.90;;;;;;;;;;4973398;28;20371;-80
2024/02/17 11:50:22;;;;;;;16.55;9.65;;;;;;;;;;4974789;28;20049;-80
2024/02/17 11:52:49;;;;;;;15.52;9.55;;;;;;;;;;4972660;28;20042;-80
2024/02/17 11:55:16;;;;;;;19.50;9.65;;;;;;;;;;4973775;28;20035;-79
2024/02/17 11:57:42;;;;;;;17.88;9.68;;;;;;;;;;4966500;28;20034;-79
2024/02/17 12:00:11;;;;;;;18.45;9.40;;;;;;;;;;4978787;28;20309;-79
2024/02/17 12:02:45;;;;;;;16.27;9.60;;;;;;;;;;4977734;28;20034;-79
2024/02/17 12:05:13;;;;;;;15.13;9.85;;;;;;;;;;4977118;28;20030;-79
2024/02/17 12:07:40;;;;;;;16.42;9.82;;;;;;;;;;4976860;28;20041;-79
2024/02/17 12:10:08;;;;;;;19.00;10.27;;;;;;;;;;4975110;28;20122;-79
2024/02/17 12:12:38;;;;;;;16.42;10.00;;;;;;;;;;4957902;28;20590;-79
2024/02/17 12:15:08;;;;;;;20.15;10.45;;;;;;;;;;4974648;28;20034;-79
2024/02/17 12:17:37;;;;;;;14.65;8.73;;;;;;;;;;4965520;28;20623;-79
2024/02/17 12:20:03;;;;;;;15.02;9.63;;;;;;;;;;4975413;28;20030;-79
2024/02/17 12:22:29;;;;;;;17.30;9.70;;;;;;;;;;4966451;28;20049;-83
2024/02/17 12:24:54;;;;;;;20.33;10.27;;;;;;;;;;4979675;28;20567;-83
2024/02/17 12:27:20;;;;;;;17.38;9.73;;;;;;;;;;4963707;28;20035;-83
2024/02/17 12:29:50;;;;;;;18.33;10.45;;;;;;;;;;4973712;28;20027;-83
2024/02/17 12:32:20;;;;;;;16.20;9.73;;;;;;;;;;4982535;28;20104;-84
2024/02/17 12:34:45;;;;;;;20.77;9.38;;;;;;;;;;4969397;28;20034;-84
2024/02/17 12:37:14;;;;;;;16.30;9.75;;;;;;;;;;4960311;28;20056;-84
2024/02/17 12:39:39;;;;;;;19.13;9.82;;;;;;;;;;4961309;28;20026;-83
2024/02/17 12:42:07;;;;;;;16.75;9.27;;;;;;;;;;4978968;28;20411;-83
2024/02/17 12:44:33;;;;;;;16.55;9.75;;;;;;;;;;4972260;28;20097;-83
2024/02/17 12:46:58;;;;;;;18.05;9.50;;;;;;;;;;4962248;28;20033;-83
2024/02/17 12:49:24;;;;;;;18.33;9.65;;;;;;;;;;4957306;28;20023;-83
2024/02/17 12:51:51;;;;;;;16.92;9.50;;;;;;;;;;4979569;28;20472;-84
2024/02/17 12:54:20;;;;;;;15.23;9.18;;;;;;;;;;4971340;28;20085;-84
2024/02/17 12:56:46;;;;;;;16.73;8.93;;;;;;;;;;4956967;28;20062;-84
2024/02/17 12:59:12;;;;;;;16.30;9.32;;;;;;;;;;4962237;28;20540;-84
2024/02/17 13:01:38;;;;;;;15.57;10.15;;;;;;;;;;4959121;28;20097;-84
2024/02/17 13:04:03;;;;;;;14.90;9.80;;;;;;;;;;4981422;28;20034;-84
2024/02/17 13:06:29;;;;;;;18.55;10.57;;;;;;;;;;4958724;28;20474;-84
2024/02/17 13:08:54;;;;;;;16.60;10.05;;;;;;;;;;4973484;28;20030;-84
2024/02/17 13:11:20;;;;;;;18.50;9.90;;;;;;;;;;4956887;28;20424;-87
2024/02/17 13:13:45;;;;;;;16.15;9.73;;;;;;;;;;4983211;28;20030;-84
2024/02/17 13:16:11;;;;;;;17.58;9.82;;;;;;;;;;4955729;28;20038;-83
2024/02/17 13:18:37;;;;;;;15.98;9.65;;;;;;;;;;4983433;28;20031;-84
2024/02/17 13:21:02;;;;;;;16.92;9.50;;;;;;;;;;4974543;28;20052;-84
2024/02/17 13:23:28;;;;;;;15.52;9.93;;;;;;;;;;4969346;28;20038;-83
2024/02/17 13:25:53;;;;;;;16.00;9.65;;;;;;;;;;4987955;28;20568;-83
2024/02/17 13:28:19;;;;;;;16.38;9.65;;;;;;;;;;4959436;28;20042;-83
2024/02/17 13:30:47;;;;;;;15.15;9.80;;;;;;;;;;4996732;28;20108;-83
2024/02/17 13:33:13;;;;;;;17.55;9.07;;;;;;;;;;4970905;28;20034;-84
2024/02/17 13:35:40;;;;;;;15.73;9.65;;;;;;;;;;4976679;28;20510;-84
2024/02/17 13:38:06;;;;;;;15.82;9.55;;;;;;;;;;4978756;28;20041;-83
2024/02/17 13:40:32;;;;;;;18.05;9.88;;;;;;;;;;4972903;28;20362;-83
2024/02/17 13:42:58;;;;;;;15.45;9.82;;;;;;;;;;4980843;28;20030;-83
2024/02/17 13:45:23;;;;;;;17.05;9.43;;;;;;;;;;4983419;28;20030;-83
2024/02/17 13:47:49;;;;;;;16.35;9.52;;;;;;;;;;4980456;28;21786;-83
2024/02/17 13:50:16;;;;;;;16.45;10.55;;;;;;;;;;4967121;28;20038;-83
2024/02/17 13:52:42;;;;;;;16.23;9.50;;;;;;;;;;4949953;28;20045;-83
2024/02/17 13:55:10;;;;;;;15.48;9.48;;;;;;;;;;4972667;28;20038;-83
2024/02/17 13:57:35;;;;;;;16.13;9.00;;;;;;;;;;4959149;28;20035;-83
2024/02/17 14:00:03;;;;;;;15.13;8.43;;;;;;;;;;4973909;28;20030;-82
2024/02/17 14:02:29;;;;;;;14.43;8.18;;;;;;;;;;4962403;28;20030;-83
2024/02/17 14:04:59;;;;;;;15.35;9.02;;;;;;;;;;4961275;28;20461;-84
2024/02/17 14:07:25;;;;;;;15.30;7.78;;;;;;;;;;4971320;28;20041;-83
2024/02/17 14:09:51;;;;;;;17.60;8.88;;;;;;;;;;4957140;28;20030;-83
2024/02/17 14:12:17;;;;;;;14.88;8.23;;;;;;;;;;4973259;28;20041;-84
2024/02/17 14:14:44;;;;;;;15.55;8.27;;;;;;;;;;4971141;28;20030;-83
2024/02/17 14:17:10;;;;;;;12.80;8.05;;;;;;;;;;4970083;28;20471;-83
2024/02/17 14:19:37;;;;;;;12.63;8.35;;;;;;;;;;4970110;28;20050;-83
2024/02/17 14:22:13;;;;;;;14.80;8.38;;;;;;;;;;4970039;28;20493;-83
2024/02/17 14:24:39;;;;;;;14.07;8.00;;;;;;;;;;4955313;28;20038;-83
2024/02/17 14:27:05;;;;;;;12.82;8.15;;;;;;;;;;4976594;28;20468;-82